sensor_id;sensor_type;location;lat;lon;timestamp;pressure;altitude;pressure_sealevel;temperature;humidity
68793;BME280;55778;54.346;10.210;2023-02-28T00:00:50;102777.75;;;3.74;92.82
68793;BME280;55778;54.346;10.210;2023-02-28T00:03:16;102780.16;;;3.57;93.60
68793;BME280;55778;54.346;10.210;2023-02-28T00:05:41;102766.53;;;3.61;93.94
68793;BME280;55778;54.346;10.210;2023-02-28T00:08:07;102766.94;;;3.49;94.28
68793;BME280;55778;54.346;10.210;2023-02-28T00:10:32;102756.06;;;3.52;94.21
68793;BME280;55778;54.346;10.210;2023-02-28T00:13:04;102765.19;;;3.48;94.50
68793;BME280;55778;54.346;10.210;2023-02-28T00:15:30;102765.91;;;3.53;95.15
68793;BME280;55778;54.346;10.210;2023-02-28T00:17:55;102767.09;;;3.45;95.08
68793;BME280;55778;54.346;10.210;2023-02-28T00:20:21;102764.44;;;3.69;94.29
68793;BME280;55778;54.346;10.210;2023-02-28T00:22:49;102765.53;;;3.64;93.84
68793;BME280;55778;54.346;10.210;2023-02-28T00:25:17;102762.50;;;3.48;94.70
68793;BME280;55778;54.346;10.210;2023-02-28T00:27:43;102760.88;;;3.43;95.29
68793;BME280;55778;54.346;10.210;2023-02-28T00:30:12;102772.53;;;3.43;96.09
68793;BME280;55778;54.346;10.210;2023-02-28T00:32:38;102765.69;;;3.59;95.72
68793;BME280;55778;54.346;10.210;2023-02-28T00:35:04;102760.34;;;3.58;95.92
68793;BME280;55778;54.346;10.210;2023-02-28T00:37:30;102764.63;;;3.39;96.48
68793;BME280;55778;54.346;10.210;2023-02-28T00:39:56;102767.25;;;3.66;95.92
68793;BME280;55778;54.346;10.210;2023-02-28T00:42:21;102771.44;;;3.75;95.97
68793;BME280;55778;54.346;10.210;2023-02-28T00:44:47;102769.19;;;3.63;95.83
68793;BME280;55778;54.346;10.210;2023-02-28T00:47:12;102773.66;;;3.62;95.59
68793;BME280;55778;54.346;10.210;2023-02-28T00:49:37;102774.13;;;3.49;96.77
68793;BME280;55778;54.346;10.210;2023-02-28T00:52:03;102777.25;;;3.37;98.22
68793;BME280;55778;54.346;10.210;2023-02-28T00:54:28;102769.38;;;3.31;97.84
68793;BME280;55778;54.346;10.210;2023-02-28T00:56:54;102771.09;;;3.33;97.93
68793;BME280;55778;54.346;10.210;2023-02-28T00:59:19;102775.50;;;3.36;98.43
68793;BME280;55778;54.346;10.210;2023-02-28T01:01:46;102777.94;;;3.43;98.06
68793;BME280;55778;54.346;10.210;2023-02-28T01:04:12;102781.88;;;3.33;98.02
68793;BME280;55778;54.346;10.210;2023-02-28T01:06:38;102779.03;;;3.38;97.80
68793;BME280;55778;54.346;10.210;2023-02-28T01:09:05;102780.31;;;3.26;98.34
68793;BME280;55778;54.346;10.210;2023-02-28T01:11:32;102773.25;;;3.22;99.07
68793;BME280;55778;54.346;10.210;2023-02-28T01:13:58;102777.03;;;3.17;98.97
68793;BME280;55778;54.346;10.210;2023-02-28T01:16:24;102779.03;;;3.10;99.41
68793;BME280;55778;54.346;10.210;2023-02-28T01:18:50;102774.41;;;3.41;99.13
68793;BME280;55778;54.346;10.210;2023-02-28T01:21:18;102768.34;;;3.61;97.34
68793;BME280;55778;54.346;10.210;2023-02-28T01:23:44;102759.75;;;3.50;97.31
68793;BME280;55778;54.346;10.210;2023-02-28T01:26:13;102772.06;;;3.31;97.77
68793;BME280;55778;54.346;10.210;2023-02-28T01:28:39;102769.38;;;3.31;98.62
68793;BME280;55778;54.346;10.210;2023-02-28T01:31:05;102759.72;;;3.24;98.38
68793;BME280;55778;54.346;10.210;2023-02-28T01:33:31;102760.53;;;3.27;98.49
68793;BME280;55778;54.346;10.210;2023-02-28T01:35:59;102757.38;;;3.41;98.24
68793;BME280;55778;54.346;10.210;2023-02-28T01:38:24;102762.09;;;3.60;96.10
68793;BME280;55778;54.346;10.210;2023-02-28T01:40:50;102752.47;;;3.52;96.30
68793;BME280;55778;54.346;10.210;2023-02-28T01:43:51;102756.16;;;3.49;96.23
68793;BME280;55778;54.346;10.210;2023-02-28T01:46:15;102741.22;;;3.65;95.24
68793;BME280;55778;54.346;10.210;2023-02-28T01:48:49;102744.34;;;3.53;95.28
68793;BME280;55778;54.346;10.210;2023-02-28T01:54:09;102757.81;;;3.27;96.47
68793;BME280;55778;54.346;10.210;2023-02-28T01:56:44;102755.47;;;3.43;95.61
68793;BME280;55778;54.346;10.210;2023-02-28T01:59:14;102757.81;;;3.27;96.31
68793;BME280;55778;54.346;10.210;2023-02-28T02:01:43;102760.03;;;3.15;97.36
68793;BME280;55778;54.346;10.210;2023-02-28T02:04:09;102762.97;;;3.07;97.91
68793;BME280;55778;54.346;10.210;2023-02-28T02:06:40;102760.47;;;3.01;98.91
68793;BME280;55778;54.346;10.210;2023-02-28T02:09:07;102756.94;;;3.01;99.02
68793;BME280;55778;54.346;10.210;2023-02-28T02:11:33;102756.47;;;3.14;98.32
68793;BME280;55778;54.346;10.210;2023-02-28T02:22:23;102757.25;;;3.18;96.71
68793;BME280;55778;54.346;10.210;2023-02-28T02:25:09;102761.13;;;3.35;96.19
68793;BME280;55778;54.346;10.210;2023-02-28T02:36:11;102753.44;;;2.70;98.39
68793;BME280;55778;54.346;10.210;2023-02-28T02:38:52;102755.44;;;2.63;98.75
68793;BME280;55778;54.346;10.210;2023-02-28T02:41:28;102746.81;;;2.52;99.62
68793;BME280;55778;54.346;10.210;2023-02-28T02:46:37;102755.88;;;2.48;99.43
68793;BME280;55778;54.346;10.210;2023-02-28T02:49:09;102755.94;;;2.47;99.55
68793;BME280;55778;54.346;10.210;2023-02-28T02:51:37;102754.63;;;2.60;99.41
68793;BME280;55778;54.346;10.210;2023-02-28T02:54:13;102760.91;;;2.89;97.23
68793;BME280;55778;54.346;10.210;2023-02-28T02:56:45;102754.84;;;3.09;95.96
68793;BME280;55778;54.346;10.210;2023-02-28T02:59:14;102760.19;;;3.10;95.51
68793;BME280;55778;54.346;10.210;2023-02-28T03:01:41;102755.50;;;2.89;96.31
68793;BME280;55778;54.346;10.210;2023-02-28T03:04:13;102757.09;;;2.67;97.13
68793;BME280;55778;54.346;10.210;2023-02-28T03:06:40;102754.00;;;2.52;96.97
68793;BME280;55778;54.346;10.210;2023-02-28T03:09:05;102757.16;;;2.37;98.21
68793;BME280;55778;54.346;10.210;2023-02-28T03:11:32;102748.19;;;2.36;98.88
68793;BME280;55778;54.346;10.210;2023-02-28T03:22:45;102760.53;;;2.13;99.55
68793;BME280;55778;54.346;10.210;2023-02-28T03:27:49;102762.56;;;2.35;98.00
68793;BME280;55778;54.346;10.210;2023-02-28T03:30:27;102766.09;;;2.06;98.89
68793;BME280;55778;54.346;10.210;2023-02-28T03:33:14;102768.69;;;1.79;99.69
68793;BME280;55778;54.346;10.210;2023-02-28T03:36:09;102766.97;;;1.76;100.00
68793;BME280;55778;54.346;10.210;2023-02-28T03:38:49;102765.97;;;1.79;100.00
68793;BME280;55778;54.346;10.210;2023-02-28T03:41:24;102771.81;;;1.62;100.00
68793;BME280;55778;54.346;10.210;2023-02-28T03:43:58;102772.28;;;1.44;100.00
68793;BME280;55778;54.346;10.210;2023-02-28T03:46:28;102780.00;;;1.23;100.00
68793;BME280;55778;54.346;10.210;2023-02-28T03:49:05;102770.59;;;1.05;100.00
68793;BME280;55778;54.346;10.210;2023-02-28T03:51:33;102773.53;;;0.95;100.00
68793;BME280;55778;54.346;10.210;2023-02-28T03:54:05;102767.66;;;1.14;100.00
68793;BME280;55778;54.346;10.210;2023-02-28T03:57:07;102771.72;;;1.32;100.00
68793;BME280;55778;54.346;10.210;2023-02-28T03:59:39;102767.91;;;1.40;100.00
68793;BME280;55778;54.346;10.210;2023-02-28T04:02:07;102765.75;;;1.19;100.00
68793;BME280;55778;54.346;10.210;2023-02-28T04:04:33;102768.06;;;0.99;100.00
68793;BME280;55778;54.346;10.210;2023-02-28T04:07:06;102769.38;;;0.80;100.00
68793;BME280;55778;54.346;10.210;2023-02-28T04:09:32;102773.06;;;0.76;100.00
68793;BME280;55778;54.346;10.210;2023-02-28T04:11:57;102770.41;;;0.75;100.00
68793;BME280;55778;54.346;10.210;2023-02-28T04:14:23;102776.88;;;0.66;100.00
68793;BME280;55778;54.346;10.210;2023-02-28T04:16:48;102780.91;;;0.47;100.00
68793;BME280;55778;54.346;10.210;2023-02-28T04:19:15;102769.59;;;0.32;100.00
68793;BME280;55778;54.346;10.210;2023-02-28T04:21:45;102777.81;;;0.23;100.00
68793;BME280;55778;54.346;10.210;2023-02-28T04:24:17;102778.75;;;0.22;100.00
68793;BME280;55778;54.346;10.210;2023-02-28T04:26:45;102778.75;;;0.22;100.00
68793;BME280;55778;54.346;10.210;2023-02-28T04:29:13;102784.19;;;0.19;100.00
68793;BME280;55778;54.346;10.210;2023-02-28T04:31:39;102775.34;;;0.12;100.00
68793;BME280;55778;54.346;10.210;2023-02-28T04:34:04;102776.47;;;0.02;100.00
68793;BME280;55778;54.346;10.210;2023-02-28T04:36:30;102777.72;;;-0.16;100.00
68793;BME280;55778;54.346;10.210;2023-02-28T04:38:56;102776.09;;;-0.24;100.00
68793;BME280;55778;54.346;10.210;2023-02-28T04:41:22;102784.13;;;-0.24;100.00
68793;BME280;55778;54.346;10.210;2023-02-28T04:43:48;102778.03;;;-0.32;100.00
68793;BME280;55778;54.346;10.210;2023-02-28T04:46:13;102780.84;;;-0.40;100.00
68793;BME280;55778;54.346;10.210;2023-02-28T04:48:39;102780.03;;;-0.43;100.00
68793;BME280;55778;54.346;10.210;2023-02-28T04:53:31;102780.16;;;-0.51;100.00
68793;BME280;55778;54.346;10.210;2023-02-28T04:55:57;102782.78;;;-0.48;100.00
68793;BME280;55778;54.346;10.210;2023-02-28T04:58:23;102782.94;;;-0.57;100.00
68793;BME280;55778;54.346;10.210;2023-02-28T05:00:50;102782.16;;;-0.63;100.00
68793;BME280;55778;54.346;10.210;2023-02-28T05:03:15;102780.56;;;-0.73;100.00
68793;BME280;55778;54.346;10.210;2023-02-28T05:05:40;102780.66;;;-0.79;100.00
68793;BME280;55778;54.346;10.210;2023-02-28T05:08:06;102779.84;;;-0.86;100.00
68793;BME280;55778;54.346;10.210;2023-02-28T05:10:31;102774.56;;;-0.89;100.00
68793;BME280;55778;54.346;10.210;2023-02-28T05:12:57;102777.16;;;-0.84;100.00
68793;BME280;55778;54.346;10.210;2023-02-28T05:15:23;102773.59;;;-0.83;100.00
68793;BME280;55778;54.346;10.210;2023-02-28T05:17:49;102770.72;;;-0.73;100.00
68793;BME280;55778;54.346;10.210;2023-02-28T05:20:14;102772.56;;;-0.76;100.00
68793;BME280;55778;54.346;10.210;2023-02-28T05:22:40;102771.81;;;-0.86;100.00
68793;BME280;55778;54.346;10.210;2023-02-28T05:25:06;102774.63;;;-0.93;100.00
68793;BME280;55778;54.346;10.210;2023-02-28T05:27:32;102780.03;;;-0.96;100.00
68793;BME280;55778;54.346;10.210;2023-02-28T05:29:58;102779.06;;;-0.91;100.00
68793;BME280;55778;54.346;10.210;2023-02-28T05:32:24;102785.25;;;-0.89;100.00
68793;BME280;55778;54.346;10.210;2023-02-28T05:34:50;102781.84;;;-0.97;100.00
68793;BME280;55778;54.346;10.210;2023-02-28T05:37:15;102792.69;;;-1.06;100.00
68793;BME280;55778;54.346;10.210;2023-02-28T05:39:42;102790.09;;;-1.12;100.00
68793;BME280;55778;54.346;10.210;2023-02-28T05:42:07;102798.06;;;-1.09;100.00
68793;BME280;55778;54.346;10.210;2023-02-28T05:44:34;102797.06;;;-1.02;100.00
68793;BME280;55778;54.346;10.210;2023-02-28T05:46:59;102797.75;;;-0.88;100.00
68793;BME280;55778;54.346;10.210;2023-02-28T05:49:25;102805.75;;;-0.86;100.00
68793;BME280;55778;54.346;10.210;2023-02-28T05:51:50;102796.81;;;-0.85;100.00
68793;BME280;55778;54.346;10.210;2023-02-28T05:54:15;102800.53;;;-0.94;100.00
68793;BME280;55778;54.346;10.210;2023-02-28T05:56:41;102812.16;;;-0.98;100.00
68793;BME280;55778;54.346;10.210;2023-02-28T05:59:09;102804.16;;;-0.99;100.00
68793;BME280;55778;54.346;10.210;2023-02-28T06:01:38;102811.34;;;-1.03;100.00
68793;BME280;55778;54.346;10.210;2023-02-28T06:04:05;102816.75;;;-1.06;100.00
68793;BME280;55778;54.346;10.210;2023-02-28T06:06:31;102817.56;;;-1.02;100.00
68793;BME280;55778;54.346;10.210;2023-02-28T06:08:59;102822.13;;;-1.07;100.00
68793;BME280;55778;54.346;10.210;2023-02-28T06:11:26;102818.63;;;-1.12;100.00
68793;BME280;55778;54.346;10.210;2023-02-28T06:13:56;102824.03;;;-1.17;100.00
68793;BME280;55778;54.346;10.210;2023-02-28T06:16:25;102831.00;;;-1.05;100.00
68793;BME280;55778;54.346;10.210;2023-02-28T06:18:51;102822.25;;;-1.16;100.00
68793;BME280;55778;54.346;10.210;2023-02-28T06:21:17;102821.50;;;-1.27;100.00
68793;BME280;55778;54.346;10.210;2023-02-28T06:23:43;102825.19;;;-1.36;100.00
68793;BME280;55778;54.346;10.210;2023-02-28T06:26:09;102826.97;;;-1.36;100.00
68793;BME280;55778;54.346;10.210;2023-02-28T06:28:34;102831.44;;;-1.35;100.00
68793;BME280;55778;54.346;10.210;2023-02-28T06:31:06;102834.06;;;-1.32;100.00
68793;BME280;55778;54.346;10.210;2023-02-28T06:33:31;102832.16;;;-1.24;100.00
68793;BME280;55778;54.346;10.210;2023-02-28T06:35:57;102829.22;;;-1.06;100.00
68793;BME280;55778;54.346;10.210;2023-02-28T06:38:22;102834.44;;;-0.96;100.00
68793;BME280;55778;54.346;10.210;2023-02-28T06:40:55;102842.25;;;-0.82;100.00
68793;BME280;55778;54.346;10.210;2023-02-28T06:43:22;102830.53;;;-0.75;100.00
68793;BME280;55778;54.346;10.210;2023-02-28T06:45:48;102834.72;;;-0.59;100.00
68793;BME280;55778;54.346;10.210;2023-02-28T06:48:13;102832.63;;;-0.41;100.00
68793;BME280;55778;54.346;10.210;2023-02-28T06:50:38;102834.25;;;-0.31;100.00
68793;BME280;55778;54.346;10.210;2023-02-28T06:53:04;102841.88;;;-0.08;100.00
68793;BME280;55778;54.346;10.210;2023-02-28T06:55:30;102840.56;;;0.14;100.00
68793;BME280;55778;54.346;10.210;2023-02-28T06:57:55;102845.41;;;-0.05;100.00
68793;BME280;55778;54.346;10.210;2023-02-28T07:00:21;102840.13;;;-0.09;100.00
68793;BME280;55778;54.346;10.210;2023-02-28T07:02:46;102837.66;;;0.25;100.00
68793;BME280;55778;54.346;10.210;2023-02-28T07:05:12;102840.44;;;0.63;100.00
68793;BME280;55778;54.346;10.210;2023-02-28T07:07:38;102839.50;;;1.05;100.00
68793;BME280;55778;54.346;10.210;2023-02-28T07:10:06;102847.97;;;1.25;100.00
68793;BME280;55778;54.346;10.210;2023-02-28T07:12:31;102842.56;;;1.63;100.00
68793;BME280;55778;54.346;10.210;2023-02-28T07:14:57;102842.34;;;2.04;100.00
68793;BME280;55778;54.346;10.210;2023-02-28T07:17:22;102839.69;;;2.35;100.00
68793;BME280;55778;54.346;10.210;2023-02-28T07:19:48;102844.13;;;2.37;100.00
68793;BME280;55778;54.346;10.210;2023-02-28T07:22:13;102840.09;;;2.52;98.16
68793;BME280;55778;54.346;10.210;2023-02-28T07:24:38;102841.84;;;2.83;97.52
68793;BME280;55778;54.346;10.210;2023-02-28T07:27:04;102847.16;;;3.14;95.43
68793;BME280;55778;54.346;10.210;2023-02-28T07:29:29;102848.53;;;3.54;94.23
68793;BME280;55778;54.346;10.210;2023-02-28T07:31:55;102847.53;;;3.83;90.21
68793;BME280;55778;54.346;10.210;2023-02-28T07:34:22;102840.25;;;3.86;90.96
68793;BME280;55778;54.346;10.210;2023-02-28T07:36:47;102849.84;;;4.20;87.69
68793;BME280;55778;54.346;10.210;2023-02-28T07:39:13;102845.38;;;4.43;85.74
68793;BME280;55778;54.346;10.210;2023-02-28T07:41:38;102847.69;;;4.54;85.90
68793;BME280;55778;54.346;10.210;2023-02-28T07:44:09;102841.38;;;5.01;84.32
68793;BME280;55778;54.346;10.210;2023-02-28T07:46:34;102851.50;;;5.17;81.42
68793;BME280;55778;54.346;10.210;2023-02-28T07:49:00;102848.50;;;5.02;81.14
68793;BME280;55778;54.346;10.210;2023-02-28T07:51:28;102851.28;;;5.23;79.96
68793;BME280;55778;54.346;10.210;2023-02-28T07:53:53;102856.25;;;5.11;81.17
68793;BME280;55778;54.346;10.210;2023-02-28T07:56:19;102864.34;;;5.34;78.17
68793;BME280;55778;54.346;10.210;2023-02-28T07:58:44;102855.06;;;5.41;77.03
68793;BME280;55778;54.346;10.210;2023-02-28T08:01:10;102856.88;;;5.83;74.01
68793;BME280;55778;54.346;10.210;2023-02-28T08:03:37;102857.78;;;5.84;74.33
68793;BME280;55778;54.346;10.210;2023-02-28T08:06:07;102851.59;;;6.22;72.92
68793;BME280;55778;54.346;10.210;2023-02-28T08:08:33;102844.25;;;6.44;71.78
68793;BME280;55778;54.346;10.210;2023-02-28T08:11:00;102845.03;;;6.86;68.39
68793;BME280;55778;54.346;10.210;2023-02-28T08:13:26;102847.31;;;6.57;68.50
68793;BME280;55778;54.346;10.210;2023-02-28T08:15:53;102841.31;;;7.07;68.00
68793;BME280;55778;54.346;10.210;2023-02-28T08:18:20;102837.66;;;7.27;66.97
68793;BME280;55778;54.346;10.210;2023-02-28T08:20:45;102847.38;;;7.31;67.17
68793;BME280;55778;54.346;10.210;2023-02-28T08:23:11;102848.97;;;7.53;67.11
68793;BME280;55778;54.346;10.210;2023-02-28T08:25:36;102846.56;;;8.00;64.75
68793;BME280;55778;54.346;10.210;2023-02-28T08:28:01;102845.78;;;8.49;63.24
68793;BME280;55778;54.346;10.210;2023-02-28T08:30:27;102834.00;;;8.66;62.31
68793;BME280;55778;54.346;10.210;2023-02-28T08:32:52;102837.13;;;8.07;63.08
68793;BME280;55778;54.346;10.210;2023-02-28T08:35:17;102835.31;;;8.59;62.71
68793;BME280;55778;54.346;10.210;2023-02-28T08:37:43;102846.13;;;8.76;60.26
68793;BME280;55778;54.346;10.210;2023-02-28T08:40:09;102842.84;;;8.86;59.80
68793;BME280;55778;54.346;10.210;2023-02-28T08:42:34;102838.38;;;8.85;59.53
68793;BME280;55778;54.346;10.210;2023-02-28T08:45:00;102848.19;;;9.36;58.37
68793;BME280;55778;54.346;10.210;2023-02-28T08:47:25;102836.75;;;9.60;57.47
68793;BME280;55778;54.346;10.210;2023-02-28T08:49:51;102833.94;;;9.31;57.78
68793;BME280;55778;54.346;10.210;2023-02-28T08:52:17;102839.69;;;9.87;54.98
68793;BME280;55778;54.346;10.210;2023-02-28T08:54:44;102838.50;;;9.61;57.66
68793;BME280;55778;54.346;10.210;2023-02-28T08:57:10;102842.28;;;9.43;57.09
68793;BME280;55778;54.346;10.210;2023-02-28T08:59:35;102829.66;;;10.33;55.82
68793;BME280;55778;54.346;10.210;2023-02-28T09:02:01;102838.94;;;10.58;54.27
68793;BME280;55778;54.346;10.210;2023-02-28T09:04:26;102832.34;;;11.18;52.20
68793;BME280;55778;54.346;10.210;2023-02-28T09:06:52;102840.78;;;9.98;53.80
68793;BME280;55778;54.346;10.210;2023-02-28T09:09:17;102840.44;;;9.28;56.33
68793;BME280;55778;54.346;10.210;2023-02-28T09:11:42;102837.28;;;10.70;53.51
68793;BME280;55778;54.346;10.210;2023-02-28T09:14:08;102837.31;;;11.26;51.92
68793;BME280;55778;54.346;10.210;2023-02-28T09:16:34;102846.78;;;10.35;53.70
68793;BME280;55778;54.346;10.210;2023-02-28T09:18:59;102847.56;;;10.94;52.72
68793;BME280;55778;54.346;10.210;2023-02-28T09:21:25;102839.81;;;11.83;50.93
68793;BME280;55778;54.346;10.210;2023-02-28T09:23:52;102846.41;;;11.53;51.37
68793;BME280;55778;54.346;10.210;2023-02-28T09:26:26;102849.31;;;12.17;48.85
68793;BME280;55778;54.346;10.210;2023-02-28T09:28:52;102845.09;;;12.38;48.66
68793;BME280;55778;54.346;10.210;2023-02-28T09:31:21;102843.81;;;12.81;48.29
68793;BME280;55778;54.346;10.210;2023-02-28T09:33:51;102850.38;;;13.16;46.08
68793;BME280;55778;54.346;10.210;2023-02-28T09:36:17;102853.47;;;13.24;46.75
68793;BME280;55778;54.346;10.210;2023-02-28T09:38:43;102852.34;;;12.52;48.05
68793;BME280;55778;54.346;10.210;2023-02-28T09:41:23;102858.38;;;13.19;44.93
68793;BME280;55778;54.346;10.210;2023-02-28T09:43:55;102858.25;;;13.33;45.70
68793;BME280;55778;54.346;10.210;2023-02-28T09:46:43;102859.03;;;12.85;44.90
68793;BME280;55778;54.346;10.210;2023-02-28T09:49:11;102856.81;;;11.20;49.29
68793;BME280;55778;54.346;10.210;2023-02-28T09:51:55;102855.16;;;11.03;50.87
68793;BME280;55778;54.346;10.210;2023-02-28T09:54:24;102856.91;;;10.62;52.77
68793;BME280;55778;54.346;10.210;2023-02-28T09:56:57;102857.06;;;12.87;47.96
68793;BME280;55778;54.346;10.210;2023-02-28T10:05:38;102852.81;;;12.83;47.86
68793;BME280;55778;54.346;10.210;2023-02-28T10:08:14;102851.72;;;13.11;46.12
68793;BME280;55778;54.346;10.210;2023-02-28T10:10:47;102851.63;;;13.84;43.56
68793;BME280;55778;54.346;10.210;2023-02-28T10:15:51;102855.50;;;12.06;46.93
68793;BME280;55778;54.346;10.210;2023-02-28T10:18:22;102857.78;;;10.77;50.27
68793;BME280;55778;54.346;10.210;2023-02-28T10:20:50;102870.72;;;8.57;56.39
68793;BME280;55778;54.346;10.210;2023-02-28T10:23:28;102871.78;;;9.66;55.21
68793;BME280;55778;54.346;10.210;2023-02-28T10:26:05;102857.78;;;11.73;49.25
68793;BME280;55778;54.346;10.210;2023-02-28T10:28:33;102853.69;;;13.21;45.24
68793;BME280;55778;54.346;10.210;2023-02-28T10:30:59;102852.28;;;13.52;43.65
68793;BME280;55778;54.346;10.210;2023-02-28T10:33:26;102849.66;;;13.86;44.06
68793;BME280;55778;54.346;10.210;2023-02-28T10:35:53;102845.91;;;12.90;43.93
68793;BME280;55778;54.346;10.210;2023-02-28T10:38:27;102867.09;;;10.59;50.70
68793;BME280;55778;54.346;10.210;2023-02-28T10:43:32;102860.53;;;13.75;42.94
68793;BME280;55778;54.346;10.210;2023-02-28T10:46:01;102856.50;;;13.68;44.01
68793;BME280;55778;54.346;10.210;2023-02-28T10:48:31;102849.91;;;13.71;42.26
68793;BME280;55778;54.346;10.210;2023-02-28T10:50:57;102845.53;;;13.68;41.86
68793;BME280;55778;54.346;10.210;2023-02-28T11:03:43;102843.56;;;12.34;47.56
68793;BME280;55778;54.346;10.210;2023-02-28T11:06:18;102844.16;;;13.86;42.00
68793;BME280;55778;54.346;10.210;2023-02-28T11:08:55;102846.88;;;12.64;43.95
68793;BME280;55778;54.346;10.210;2023-02-28T11:11:24;102841.19;;;10.52;49.55
68793;BME280;55778;54.346;10.210;2023-02-28T11:13:51;102851.69;;;9.22;52.50
68793;BME280;55778;54.346;10.210;2023-02-28T11:16:18;102853.75;;;9.17;53.03
68793;BME280;55778;54.346;10.210;2023-02-28T11:18:52;102847.13;;;9.99;51.37
68793;BME280;55778;54.346;10.210;2023-02-28T11:21:37;102850.25;;;9.62;52.89
68793;BME280;55778;54.346;10.210;2023-02-28T11:24:25;102837.97;;;9.39;54.37
68793;BME280;55778;54.346;10.210;2023-02-28T11:26:52;102837.47;;;8.85;55.77
68793;BME280;55778;54.346;10.210;2023-02-28T11:29:23;102838.84;;;8.09;57.95
68793;BME280;55778;54.346;10.210;2023-02-28T11:32:19;102841.25;;;7.63;60.18
68793;BME280;55778;54.346;10.210;2023-02-28T11:34:47;102838.41;;;8.00;59.08
68793;BME280;55778;54.346;10.210;2023-02-28T11:37:24;102841.22;;;7.98;58.82
68793;BME280;55778;54.346;10.210;2023-02-28T11:39:52;102843.16;;;7.96;59.15
68793;BME280;55778;54.346;10.210;2023-02-28T11:42:27;102840.69;;;8.43;57.76
68793;BME280;55778;54.346;10.210;2023-02-28T11:45:18;102835.47;;;8.56;58.10
68793;BME280;55778;54.346;10.210;2023-02-28T11:56:07;102833.22;;;9.12;54.84
68793;BME280;55778;54.346;10.210;2023-02-28T11:58:46;102822.19;;;10.06;54.58
68793;BME280;55778;54.346;10.210;2023-02-28T12:04:00;102816.56;;;10.67;51.59
68793;BME280;55778;54.346;10.210;2023-02-28T12:14:57;102805.38;;;10.86;51.01
68793;BME280;55778;54.346;10.210;2023-02-28T12:28:12;102788.69;;;8.34;58.86
68793;BME280;55778;54.346;10.210;2023-02-28T12:30:41;102795.06;;;9.13;55.75
68793;BME280;55778;54.346;10.210;2023-02-28T12:33:13;102787.97;;;9.42;54.97
68793;BME280;55778;54.346;10.210;2023-02-28T12:35:52;102775.84;;;11.06;50.43
68793;BME280;55778;54.346;10.210;2023-02-28T12:38:41;102765.06;;;11.84;47.60
68793;BME280;55778;54.346;10.210;2023-02-28T12:41:36;102770.34;;;11.20;49.77
68793;BME280;55778;54.346;10.210;2023-02-28T12:44:09;102768.03;;;11.41;47.55
68793;BME280;55778;54.346;10.210;2023-02-28T12:46:41;102756.72;;;12.75;45.63
68793;BME280;55778;54.346;10.210;2023-02-28T12:49:12;102748.13;;;12.92;44.49
68793;BME280;55778;54.346;10.210;2023-02-28T12:51:39;102743.34;;;13.79;42.49
68793;BME280;55778;54.346;10.210;2023-02-28T12:54:25;102726.84;;;13.91;41.82
68793;BME280;55778;54.346;10.210;2023-02-28T12:57:01;102746.38;;;12.91;44.50
68793;BME280;55778;54.346;10.210;2023-02-28T12:59:45;102744.78;;;12.13;45.56
68793;BME280;55778;54.346;10.210;2023-02-28T13:08:01;102745.16;;;10.33;51.80
68793;BME280;55778;54.346;10.210;2023-02-28T13:10:43;102747.94;;;10.61;50.10
68793;BME280;55778;54.346;10.210;2023-02-28T13:13:15;102739.69;;;11.70;47.75
68793;BME280;55778;54.346;10.210;2023-02-28T13:16:08;102743.59;;;12.30;46.62
68793;BME280;55778;54.346;10.210;2023-02-28T13:18:45;102738.56;;;12.37;45.70
68793;BME280;55778;54.346;10.210;2023-02-28T13:21:27;102734.94;;;12.61;45.47
68793;BME280;55778;54.346;10.210;2023-02-28T13:34:27;102727.88;;;9.60;52.74
68793;BME280;55778;54.346;10.210;2023-02-28T13:39:51;102733.63;;;9.40;53.20
68793;BME280;55778;54.346;10.210;2023-02-28T13:47:41;102744.31;;;8.66;55.86
68793;BME280;55778;54.346;10.210;2023-02-28T13:50:34;102743.59;;;8.62;56.39
68793;BME280;55778;54.346;10.210;2023-02-28T14:06:55;102721.41;;;9.47;54.64
68793;BME280;55778;54.346;10.210;2023-02-28T14:09:37;102717.06;;;8.98;55.15
68793;BME280;55778;54.346;10.210;2023-02-28T14:18:00;102711.91;;;9.54;54.54
68793;BME280;55778;54.346;10.210;2023-02-28T14:20:29;102707.78;;;9.77;53.89
68793;BME280;55778;54.346;10.210;2023-02-28T14:23:49;102708.56;;;10.23;53.59
68793;BME280;55778;54.346;10.210;2023-02-28T14:31:37;102709.22;;;9.39;54.81
68793;BME280;55778;54.346;10.210;2023-02-28T14:36:58;102711.50;;;8.53;56.01
68793;BME280;55778;54.346;10.210;2023-02-28T14:39:25;102702.78;;;8.95;55.41
68793;BME280;55778;54.346;10.210;2023-02-28T14:41:56;102706.38;;;8.80;55.47
68793;BME280;55778;54.346;10.210;2023-02-28T14:44:27;102700.31;;;8.90;55.89
68793;BME280;55778;54.346;10.210;2023-02-28T14:46:55;102710.84;;;8.81;56.92
68793;BME280;55778;54.346;10.210;2023-02-28T14:51:50;102698.19;;;8.49;58.35
68793;BME280;55778;54.346;10.210;2023-02-28T14:54:26;102704.59;;;8.48;57.61
68793;BME280;55778;54.346;10.210;2023-02-28T14:56:52;102703.22;;;8.72;57.93
68793;BME280;55778;54.346;10.210;2023-02-28T14:59:29;102689.81;;;9.45;57.08
68793;BME280;55778;54.346;10.210;2023-02-28T15:02:22;102690.53;;;10.06;54.65
68793;BME280;55778;54.346;10.210;2023-02-28T15:07:42;102697.31;;;9.55;53.29
68793;BME280;55778;54.346;10.210;2023-02-28T15:12:40;102689.75;;;10.04;53.07
68793;BME280;55778;54.346;10.210;2023-02-28T15:15:15;102687.56;;;10.53;51.61
68793;BME280;55778;54.346;10.210;2023-02-28T15:17:44;102686.59;;;10.40;51.40
68793;BME280;55778;54.346;10.210;2023-02-28T15:20:12;102684.28;;;9.76;52.24
68793;BME280;55778;54.346;10.210;2023-02-28T15:22:39;102679.28;;;9.68;54.59